createdAt,value
2017-12-25T00:01:36.958Z,89.70
2017-12-25T00:03:13.389Z,88.00
2017-12-25T00:04:49.993Z,86.20
2017-12-25T00:06:26.874Z,87.10
2017-12-25T00:08:07.810Z,88.30
2017-12-25T00:09:45.504Z,89.00
2017-12-25T00:11:21.727Z,89.00
2017-12-25T00:12:58.012Z,88.80
2017-12-25T00:14:34.422Z,89.10
2017-12-25T00:16:10.853Z,89.50
2017-12-25T00:17:55.126Z,86.20
2017-12-25T00:19:31.560Z,86.10
2017-12-25T00:21:08.658Z,86.60
2017-12-25T00:22:44.971Z,86.60
2017-12-25T00:24:21.724Z,85.60
2017-12-25T00:25:58.529Z,84.70
2017-12-25T00:27:34.876Z,84.60
2017-12-25T00:29:11.280Z,85.80
2017-12-25T00:30:47.988Z,86.00
2017-12-25T00:32:24.462Z,84.90
2017-12-25T00:34:00.907Z,86.90
2017-12-25T00:35:37.228Z,85.20
2017-12-25T00:37:13.883Z,85.50
2017-12-25T00:38:50.327Z,87.80
2017-12-25T00:40:27.491Z,87.40
2017-12-25T00:42:07.375Z,87.40
2017-12-25T00:43:43.836Z,86.20
2017-12-25T00:45:20.332Z,87.00
2017-12-25T00:46:56.792Z,88.50
2017-12-25T00:48:33.323Z,90.40
2017-12-25T00:50:28.740Z,91.20
2017-12-25T00:52:13.159Z,91.10
2017-12-25T00:53:52.636Z,91.80
2017-12-25T00:56:57.249Z,90.80
2017-12-25T00:58:33.696Z,90.80
2017-12-25T01:00:11.135Z,90.70
2017-12-25T01:01:49.687Z,90.70
2017-12-25T01:03:26.203Z,90.90
2017-12-25T01:05:03.374Z,89.00
2017-12-25T01:06:40.210Z,89.00
2017-12-25T01:08:18.195Z,90.50
2017-12-25T01:09:55.333Z,90.10
2017-12-25T01:11:31.809Z,89.90
2017-12-25T01:13:08.742Z,90.70
2017-12-25T01:14:45.210Z,91.00
2017-12-25T01:16:21.777Z,90.40
2017-12-25T01:17:58.931Z,90.10
2017-12-25T01:19:37.824Z,89.10
2017-12-25T01:21:15.147Z,90.30
2017-12-25T01:22:51.529Z,90.30
2017-12-25T01:24:27.964Z,90.30
2017-12-25T01:26:04.349Z,90.50
2017-12-25T01:27:40.750Z,90.50
2017-12-25T01:29:17.281Z,91.00
2017-12-25T01:30:53.757Z,90.60
2017-12-25T01:32:40.257Z,90.90
2017-12-25T01:34:16.677Z,90.60
2017-12-25T01:35:53.860Z,90.00
2017-12-25T01:37:30.388Z,90.00
2017-12-25T01:39:07.987Z,90.00
2017-12-25T01:40:45.724Z,90.30
2017-12-25T01:42:24.424Z,90.30
2017-12-25T01:44:00.752Z,90.70
2017-12-25T01:45:37.799Z,90.80
2017-12-25T01:47:14.817Z,90.90
2017-12-25T01:48:54.160Z,91.40
2017-12-25T01:50:30.755Z,90.80
2017-12-25T01:52:08.343Z,90.80
2017-12-25T01:53:45.098Z,91.70
2017-12-25T01:55:25.510Z,91.80
2017-12-25T01:57:07.589Z,91.10
2017-12-25T01:58:46.363Z,91.20
2017-12-25T02:00:24.166Z,91.00
2017-12-25T02:02:00.554Z,90.80
2017-12-25T02:03:36.891Z,90.70
2017-12-25T02:05:18.253Z,90.10
2017-12-25T02:09:03.184Z,90.00
2017-12-25T02:10:39.693Z,91.20
2017-12-25T02:12:15.829Z,91.70
2017-12-25T02:13:51.939Z,91.80
2017-12-25T02:15:28.022Z,92.90
2017-12-25T02:17:05.744Z,92.90
2017-12-25T02:18:42.284Z,92.90
2017-12-25T02:20:18.596Z,92.50
2017-12-25T02:21:55.031Z,92.20
2017-12-25T02:23:31.869Z,92.00
2017-12-25T02:25:08.970Z,92.10
2017-12-25T02:26:45.372Z,92.10
2017-12-25T02:28:22.595Z,92.20
2017-12-25T02:29:59.229Z,92.20
2017-12-25T02:31:35.588Z,91.90
2017-12-25T02:33:11.831Z,91.90
2017-12-25T02:34:49.226Z,92.40
2017-12-25T02:36:25.707Z,92.40
2017-12-25T02:38:02.875Z,92.30
2017-12-25T02:39:39.362Z,92.40
2017-12-25T02:41:16.578Z,90.40
2017-12-25T02:42:53.325Z,90.40
2017-12-25T02:44:30.493Z,89.40
2017-12-25T02:46:06.869Z,89.30
2017-12-25T02:47:43.273Z,89.20
2017-12-25T02:49:22.763Z,90.10
2017-12-25T02:50:59.264Z,90.10
2017-12-25T02:52:35.700Z,90.60
2017-12-25T02:54:12.011Z,90.60
2017-12-25T02:55:48.607Z,90.90
2017-12-25T02:57:24.948Z,91.00
2017-12-25T02:59:01.316Z,90.20
2017-12-25T03:00:37.635Z,88.80
2017-12-25T03:02:14.523Z,88.50
2017-12-25T03:03:51.138Z,88.50
2017-12-25T03:05:27.591Z,89.30
2017-12-25T03:07:04.041Z,90.10
2017-12-25T03:08:40.798Z,90.30
2017-12-25T03:10:17.175Z,90.50
2017-12-25T03:11:53.567Z,90.60
2017-12-25T03:13:30.796Z,90.90
2017-12-25T03:15:14.489Z,90.90
2017-12-25T03:16:51.691Z,90.20
2017-12-25T03:18:28.235Z,90.10
2017-12-25T03:20:05.413Z,90.40
2017-12-25T03:21:41.785Z,90.40
2017-12-25T03:23:18.092Z,90.30
2017-12-25T03:24:54.378Z,90.80
2017-12-25T03:26:30.767Z,90.90
2017-12-25T03:28:07.429Z,90.80
2017-12-25T03:29:43.788Z,90.50
2017-12-25T03:31:20.179Z,90.30
2017-12-25T03:32:57.245Z,90.30
2017-12-25T03:34:34.741Z,90.90
2017-12-25T03:36:11.977Z,90.40
2017-12-25T03:37:49.148Z,90.40
2017-12-25T03:39:25.520Z,90.00
2017-12-25T03:41:02.464Z,89.70
2017-12-25T03:42:38.889Z,90.00
2017-12-25T03:44:16.906Z,89.70
2017-12-25T03:45:54.117Z,90.30
2017-12-25T03:47:30.940Z,90.30
2017-12-25T03:49:07.406Z,89.60
2017-12-25T03:50:44.492Z,87.80
2017-12-25T03:52:21.764Z,88.90
2017-12-25T03:53:58.337Z,88.90
2017-12-25T03:55:35.421Z,90.50
2017-12-25T03:57:11.928Z,90.50
2017-12-25T03:58:48.256Z,90.50
2017-12-25T04:00:24.934Z,90.10
2017-12-25T04:02:01.331Z,90.40
2017-12-25T04:03:37.707Z,89.00
2017-12-25T04:05:14.152Z,90.00
2017-12-25T04:06:50.777Z,90.60
2017-12-25T04:08:27.854Z,91.20
2017-12-25T04:10:04.293Z,90.20
2017-12-25T04:11:40.868Z,88.60
2017-12-25T04:13:18.184Z,88.70
2017-12-25T04:14:54.628Z,88.70
2017-12-25T04:16:31.790Z,87.00
2017-12-25T04:18:08.887Z,87.50
2017-12-25T04:19:46.379Z,88.70
2017-12-25T04:21:23.594Z,88.50
2017-12-25T04:23:00.129Z,88.50
2017-12-25T04:24:36.505Z,88.20
2017-12-25T04:26:13.179Z,88.80
2017-12-25T04:27:49.499Z,87.20
2017-12-25T04:29:27.245Z,86.60
2017-12-25T04:31:03.774Z,88.20
2017-12-25T04:32:40.434Z,87.70
2017-12-25T04:34:16.851Z,88.80
2017-12-25T04:35:53.112Z,87.00
2017-12-25T04:37:29.499Z,85.90
2017-12-25T04:39:06.427Z,86.10
2017-12-25T04:40:42.824Z,85.50
2017-12-25T04:42:19.237Z,84.70
2017-12-25T04:43:55.617Z,83.70
2017-12-25T04:45:33.013Z,84.50
2017-12-25T04:47:09.493Z,83.70
2017-12-25T04:48:45.859Z,83.30
2017-12-25T04:50:22.263Z,83.00
2017-12-25T04:51:58.945Z,82.40
2017-12-25T04:53:36.148Z,85.50
2017-12-25T04:55:12.632Z,85.50
2017-12-25T04:56:49.052Z,86.50
2017-12-25T04:58:26.591Z,86.80
2017-12-25T05:00:04.379Z,86.80
2017-12-25T05:01:41.793Z,86.60
2017-12-25T05:03:18.096Z,86.70
2017-12-25T05:04:55.612Z,88.50
2017-12-25T05:06:31.887Z,88.50
2017-12-25T05:08:11.420Z,88.10
2017-12-25T05:09:48.477Z,88.60
2017-12-25T05:11:25.152Z,88.90
2017-12-25T05:13:01.545Z,89.70
2017-12-25T05:14:37.897Z,89.70
2017-12-25T05:16:14.234Z,90.00
2017-12-25T05:17:50.565Z,90.10
2017-12-25T05:19:27.041Z,90.70
2017-12-25T05:21:03.323Z,90.40
2017-12-25T05:22:40.417Z,89.10
2017-12-25T05:24:21.170Z,89.00
2017-12-25T05:25:58.072Z,89.00
2017-12-25T05:27:34.456Z,88.90
2017-12-25T05:29:10.851Z,88.60
2017-12-25T05:30:47.532Z,88.40
2017-12-25T05:32:23.953Z,88.70
2017-12-25T05:34:00.305Z,88.00
2017-12-25T05:35:36.699Z,88.90
2017-12-25T05:37:13.460Z,88.50
2017-12-25T05:38:49.862Z,88.50
2017-12-25T05:40:26.269Z,88.70
2017-12-25T05:42:02.815Z,89.10
2017-12-25T05:43:39.330Z,88.50
2017-12-25T05:45:18.345Z,88.80
2017-12-25T05:46:55.267Z,90.10
2017-12-25T05:48:31.764Z,88.60
2017-12-25T05:50:08.561Z,88.80
2017-12-25T05:51:45.615Z,89.10
2017-12-25T05:53:22.410Z,89.00
2017-12-25T05:54:59.456Z,88.70
2017-12-25T05:56:36.171Z,88.70
2017-12-25T05:58:12.439Z,87.10
2017-12-25T05:59:48.796Z,85.20
2017-12-25T06:01:25.104Z,84.30
2017-12-25T06:03:01.567Z,84.40
2017-12-25T06:04:37.968Z,84.20
2017-12-25T06:06:15.105Z,85.40
2017-12-25T06:07:51.463Z,85.40
2017-12-25T06:09:28.216Z,85.40
2017-12-25T06:11:04.671Z,86.30
2017-12-25T06:12:41.074Z,85.00
2017-12-25T06:14:17.426Z,84.40
2017-12-25T06:15:54.237Z,83.80
2017-12-25T06:17:30.667Z,84.20
2017-12-25T06:19:07.098Z,84.50
2017-12-25T06:20:44.356Z,84.20
2017-12-25T06:22:21.276Z,84.30
2017-12-25T06:23:57.636Z,84.10
2017-12-25T06:25:34.669Z,84.20
2017-12-25T06:27:11.039Z,84.00
2017-12-25T06:28:47.928Z,83.00
2017-12-25T06:30:24.403Z,82.10
2017-12-25T06:32:00.893Z,82.00
2017-12-25T06:33:37.385Z,81.60
2017-12-25T06:35:14.317Z,83.10
2017-12-25T06:36:50.786Z,82.40
2017-12-25T06:38:27.291Z,83.80
2017-12-25T06:40:03.865Z,83.10
2017-12-25T06:41:40.542Z,82.20
2017-12-25T06:43:16.938Z,81.60
2017-12-25T06:44:53.430Z,81.20
2017-12-25T06:46:31.685Z,81.30
2017-12-25T06:48:10.052Z,82.70
2017-12-25T06:49:46.540Z,82.00
2017-12-25T06:51:22.860Z,81.40
2017-12-25T06:53:01.553Z,82.10
2017-12-25T06:54:38.958Z,80.90
2017-12-25T06:56:16.165Z,80.90
2017-12-25T06:57:52.765Z,80.90
2017-12-25T06:59:29.234Z,80.90
2017-12-25T07:01:06.116Z,81.30
2017-12-25T07:02:43.302Z,81.70
2017-12-25T07:04:20.506Z,82.50
2017-12-25T07:05:56.954Z,82.50
2017-12-25T07:07:34.566Z,83.00
2017-12-25T07:09:10.997Z,82.90
2017-12-25T07:10:47.503Z,82.80
2017-12-25T07:12:24.024Z,83.70
2017-12-25T07:14:01.315Z,81.70
2017-12-25T07:15:37.676Z,81.70
2017-12-25T07:17:14.216Z,82.10
2017-12-25T07:18:50.576Z,82.00
2017-12-25T07:20:27.383Z,81.40
2017-12-25T07:22:03.823Z,80.80
2017-12-25T07:23:40.249Z,82.10
2017-12-25T07:25:16.711Z,81.10
2017-12-25T07:26:54.352Z,82.50
2017-12-25T07:28:30.851Z,82.40
2017-12-25T07:30:08.143Z,82.00
2017-12-25T07:31:46.083Z,82.10
2017-12-25T07:33:23.868Z,82.10
2017-12-25T07:35:00.970Z,82.40
2017-12-25T07:36:37.548Z,82.40
2017-12-25T07:38:14.167Z,83.30
2017-12-25T07:39:51.153Z,82.60
2017-12-25T07:41:31.974Z,81.90
2017-12-25T07:43:14.877Z,81.40
2017-12-25T07:44:51.401Z,81.10
2017-12-25T07:46:27.801Z,81.00
2017-12-25T07:48:04.358Z,81.50
2017-12-25T07:49:40.787Z,81.50
2017-12-25T07:51:17.449Z,81.10
2017-12-25T07:52:54.708Z,81.20
2017-12-25T07:54:31.019Z,80.70
2017-12-25T07:56:10.847Z,80.60
2017-12-25T07:57:48.571Z,80.70
2017-12-25T07:59:26.160Z,80.70
2017-12-25T08:01:03.483Z,80.10
2017-12-25T08:02:39.915Z,80.20
2017-12-25T08:04:16.449Z,80.40
2017-12-25T08:05:52.976Z,80.90
2017-12-25T08:07:30.150Z,81.70
2017-12-25T08:10:39.949Z,81.90
2017-12-25T08:12:16.401Z,81.90
2017-12-25T08:13:52.760Z,82.00
2017-12-25T08:15:29.853Z,83.40
2017-12-25T08:17:06.594Z,83.40
2017-12-25T08:18:42.975Z,83.50
2017-12-25T08:20:19.259Z,84.20
2017-12-25T08:21:56.560Z,84.20
2017-12-25T08:23:33.296Z,84.40
2017-12-25T08:25:09.757Z,83.00
2017-12-25T08:26:46.652Z,81.90
2017-12-25T08:28:23.232Z,82.40
2017-12-25T08:30:00.028Z,82.40
2017-12-25T08:31:36.627Z,82.60
2017-12-25T08:33:12.991Z,82.50
2017-12-25T08:34:49.526Z,82.60
2017-12-25T08:36:28.212Z,85.20
2017-12-25T08:38:04.668Z,84.40
2017-12-25T08:39:41.094Z,85.40
2017-12-25T08:41:17.512Z,84.10
2017-12-25T08:42:54.594Z,83.60
2017-12-25T08:44:31.011Z,83.80
2017-12-25T08:46:07.444Z,84.30
2017-12-25T08:47:44.702Z,84.90
2017-12-25T08:49:22.510Z,84.90
2017-12-25T08:50:59.697Z,85.30
2017-12-25T08:52:36.932Z,85.60
2017-12-25T08:54:14.085Z,85.60
2017-12-25T08:55:51.009Z,85.60
2017-12-25T08:57:27.409Z,85.70
2017-12-25T08:59:03.869Z,85.20
2017-12-25T09:00:41.102Z,86.20
2017-12-25T09:02:17.942Z,86.20
2017-12-25T09:03:54.962Z,86.60
2017-12-25T09:05:31.341Z,87.80
2017-12-25T09:07:08.584Z,87.30
2017-12-25T09:08:45.384Z,87.20
2017-12-25T09:10:21.933Z,88.80
2017-12-25T09:11:58.343Z,87.90
2017-12-25T09:13:34.755Z,86.80
2017-12-25T09:15:12.846Z,86.40
2017-12-25T09:16:49.318Z,84.90
2017-12-25T09:18:25.688Z,85.50
2017-12-25T09:20:02.265Z,85.30
2017-12-25T09:21:39.147Z,84.90
2017-12-25T09:23:17.519Z,84.30
2017-12-25T09:24:53.854Z,83.50
2017-12-25T09:26:30.920Z,84.00
2017-12-25T09:28:07.803Z,83.60
2017-12-25T09:29:45.217Z,83.00
2017-12-25T09:31:21.608Z,83.80
2017-12-25T09:32:57.973Z,82.50
2017-12-25T09:34:34.743Z,82.80
2017-12-25T09:36:11.101Z,81.60
2017-12-25T09:37:47.559Z,81.40
2017-12-25T09:39:23.886Z,81.90
2017-12-25T09:41:00.589Z,81.70
2017-12-25T09:42:37.015Z,82.40
2017-12-25T09:44:13.550Z,83.00
2017-12-25T09:45:49.999Z,81.50
2017-12-25T09:47:27.611Z,82.20
2017-12-25T09:49:04.065Z,82.20
2017-12-25T09:50:40.575Z,82.10
2017-12-25T09:52:16.930Z,82.20
2017-12-25T09:53:54.608Z,81.00
2017-12-25T09:55:31.808Z,81.00
2017-12-25T09:57:08.349Z,81.00
2017-12-25T09:58:45.806Z,81.80
2017-12-25T10:00:22.209Z,82.10
2017-12-25T10:01:58.697Z,82.00
2017-12-25T10:03:35.736Z,82.00
2017-12-25T10:05:13.004Z,80.10
2017-12-25T10:06:51.627Z,80.60
2017-12-25T10:08:28.769Z,81.50
2017-12-25T10:10:05.225Z,81.50
2017-12-25T10:11:41.722Z,81.20
2017-12-25T10:13:19.336Z,81.90
2017-12-25T10:14:55.987Z,81.90
2017-12-25T10:16:32.378Z,81.30
2017-12-25T10:18:08.781Z,80.30
2017-12-25T10:19:46.868Z,79.40
2017-12-25T10:21:25.516Z,79.40
2017-12-25T10:23:02.652Z,78.40
2017-12-25T10:24:39.097Z,78.40
2017-12-25T10:26:16.891Z,78.70
2017-12-25T10:27:53.661Z,79.20
2017-12-25T10:29:30.872Z,78.40
2017-12-25T10:31:07.422Z,77.30
2017-12-25T10:32:44.164Z,75.80
2017-12-25T10:34:20.526Z,75.40
2017-12-25T10:35:56.884Z,75.80
2017-12-25T10:37:33.212Z,76.20
2017-12-25T10:39:10.256Z,77.00
2017-12-25T10:40:47.248Z,77.20
2017-12-25T10:42:23.701Z,78.40
2017-12-25T10:44:00.254Z,78.40
2017-12-25T10:45:37.359Z,78.10
2017-12-25T10:47:14.649Z,77.70
2017-12-25T10:48:51.209Z,77.60
2017-12-25T10:50:27.586Z,77.00
2017-12-25T10:52:04.445Z,77.70
2017-12-25T10:53:41.683Z,78.10
2017-12-25T10:55:18.884Z,77.50
2017-12-25T10:56:57.124Z,77.50
2017-12-25T10:58:34.881Z,77.10
2017-12-25T11:00:15.055Z,77.00
2017-12-25T11:01:52.629Z,76.60
2017-12-25T11:03:29.309Z,75.50
2017-12-25T11:05:06.466Z,74.50
2017-12-25T11:06:43.047Z,76.40
2017-12-25T11:08:19.806Z,74.60
2017-12-25T11:09:57.349Z,74.00
2017-12-25T11:11:35.325Z,73.00
2017-12-25T11:13:11.865Z,72.80
2017-12-25T11:14:48.416Z,73.80
2017-12-25T11:16:24.980Z,76.30
2017-12-25T11:18:03.936Z,79.90
2017-12-25T11:19:40.354Z,79.90
2017-12-25T11:21:17.537Z,78.40
2017-12-25T11:22:54.843Z,77.00
2017-12-25T11:24:31.877Z,77.00
2017-12-25T11:26:11.306Z,77.10
2017-12-25T11:27:48.554Z,77.60
2017-12-25T11:29:26.473Z,77.60
2017-12-25T11:31:02.930Z,77.70
2017-12-25T11:32:39.509Z,75.50
2017-12-25T11:34:16.869Z,74.70
2017-12-25T11:35:53.745Z,75.60
2017-12-25T11:37:30.571Z,74.60
2017-12-25T11:39:11.249Z,74.50
2017-12-25T11:40:48.029Z,74.40
2017-12-25T11:42:24.531Z,72.80
2017-12-25T11:44:01.671Z,73.10
2017-12-25T11:45:38.273Z,74.20
2017-12-25T11:47:14.749Z,74.10
2017-12-25T11:48:51.224Z,73.90
2017-12-25T11:50:28.006Z,73.90
2017-12-25T11:52:05.151Z,73.00
2017-12-25T11:53:41.954Z,72.20
2017-12-25T11:55:18.753Z,71.80
2017-12-25T11:56:57.602Z,72.10
2017-12-25T11:58:34.529Z,72.00
2017-12-25T12:00:12.103Z,70.50
2017-12-25T12:01:49.770Z,69.70
2017-12-25T12:03:26.847Z,69.80
2017-12-25T12:05:03.440Z,69.40
2017-12-25T12:06:40.027Z,69.70
2017-12-25T12:08:16.658Z,68.40
2017-12-25T12:09:53.642Z,68.90
2017-12-25T12:11:31.077Z,68.40
2017-12-25T12:13:08.020Z,68.20
2017-12-25T12:14:45.233Z,69.80
2017-12-25T12:16:21.778Z,71.00
2017-12-25T12:17:58.527Z,73.70
2017-12-25T12:19:35.428Z,75.40
2017-12-25T12:21:12.015Z,76.20
2017-12-25T12:22:48.909Z,74.20
2017-12-25T12:24:30.135Z,73.50
2017-12-25T12:26:06.993Z,72.30
2017-12-25T12:27:44.259Z,72.00
2017-12-25T12:29:21.182Z,71.90
2017-12-25T12:30:57.788Z,71.10
2017-12-25T12:32:47.315Z,70.90
2017-12-25T12:34:24.020Z,69.80
2017-12-25T12:36:01.626Z,70.00
2017-12-25T12:37:38.228Z,70.50
2017-12-25T12:39:16.457Z,70.60
2017-12-25T12:40:53.185Z,72.00
2017-12-25T12:42:30.663Z,72.70
2017-12-25T12:44:07.767Z,71.10
2017-12-25T12:45:45.732Z,70.80
2017-12-25T12:47:22.266Z,70.80
2017-12-25T12:48:59.491Z,70.00
2017-12-25T12:50:37.162Z,72.60
2017-12-25T12:52:15.553Z,72.50
2017-12-25T12:53:53.430Z,71.60
2017-12-25T12:55:32.088Z,72.90
2017-12-25T12:57:08.989Z,72.90
2017-12-25T12:58:47.546Z,73.00
2017-12-25T13:00:24.414Z,71.50
2017-12-25T13:02:03.297Z,70.00
2017-12-25T13:03:40.035Z,70.00
2017-12-25T13:05:17.495Z,69.80
2017-12-25T13:06:55.898Z,68.70
2017-12-25T13:08:34.094Z,70.70
2017-12-25T13:10:13.335Z,72.80
2017-12-25T13:11:51.231Z,72.70
2017-12-25T13:13:28.013Z,72.50
2017-12-25T13:15:08.881Z,72.30
2017-12-25T13:16:46.735Z,71.80
2017-12-25T13:18:23.694Z,70.10
2017-12-25T13:20:02.100Z,69.80
2017-12-25T13:21:40.459Z,69.20
2017-12-25T13:23:17.866Z,68.40
2017-12-25T13:24:55.344Z,68.90
2017-12-25T13:26:36.390Z,70.90
2017-12-25T13:28:17.137Z,69.70
2017-12-25T13:29:56.299Z,69.60
2017-12-25T13:31:34.073Z,68.50
2017-12-25T13:33:13.450Z,68.00
2017-12-25T13:34:51.508Z,70.10
2017-12-25T13:36:29.506Z,70.70
2017-12-25T13:38:09.137Z,70.00
2017-12-25T13:39:46.325Z,70.00
2017-12-25T13:41:24.268Z,68.50
2017-12-25T13:43:03.269Z,68.10
2017-12-25T13:44:41.164Z,68.00
2017-12-25T13:46:18.153Z,69.10
2017-12-25T13:47:56.784Z,69.50
2017-12-25T13:49:33.729Z,69.90
2017-12-25T13:51:10.984Z,70.40
2017-12-25T13:52:48.290Z,70.20
2017-12-25T13:54:25.224Z,70.10
2017-12-25T13:56:02.097Z,69.80
2017-12-25T13:57:38.738Z,68.80
2017-12-25T13:59:15.866Z,68.20
2017-12-25T14:00:53.834Z,69.70
2017-12-25T14:02:30.650Z,70.30
2017-12-25T14:04:07.550Z,69.50
2017-12-25T14:05:44.366Z,68.50
2017-12-25T14:07:21.171Z,68.40
2017-12-25T14:08:58.288Z,68.80
2017-12-25T14:10:36.743Z,69.00
2017-12-25T14:12:14.517Z,69.40
2017-12-25T14:13:53.088Z,69.30
2017-12-25T14:15:33.013Z,69.90
2017-12-25T14:17:10.799Z,70.20
2017-12-25T14:18:50.104Z,69.80
2017-12-25T14:20:28.199Z,71.30
2017-12-25T14:22:05.515Z,71.20
2017-12-25T14:23:43.729Z,70.60
2017-12-25T14:25:20.998Z,69.80
2017-12-25T14:27:00.416Z,70.10
2017-12-25T14:28:37.286Z,70.10
2017-12-25T14:30:15.140Z,70.10
2017-12-25T14:31:53.609Z,71.90
2017-12-25T14:33:33.460Z,70.80
2017-12-25T14:35:11.110Z,71.90
2017-12-25T14:36:50.262Z,71.90
2017-12-25T14:38:27.749Z,71.50
2017-12-25T14:40:08.390Z,71.10
2017-12-25T14:41:48.559Z,74.40
2017-12-25T14:43:25.672Z,74.40
2017-12-25T14:45:06.114Z,74.70
2017-12-25T14:46:44.856Z,73.80
2017-12-25T14:48:21.927Z,73.20
2017-12-25T14:49:59.751Z,73.50
2017-12-25T14:51:41.876Z,74.80
2017-12-25T14:53:21.181Z,74.70
2017-12-25T14:54:59.294Z,75.10
2017-12-25T14:56:38.853Z,74.50
2017-12-25T14:58:15.598Z,74.50
2017-12-25T14:59:52.928Z,74.70
2017-12-25T15:01:29.683Z,74.50
2017-12-25T15:03:07.139Z,73.80
2017-12-25T15:04:44.891Z,73.80
2017-12-25T15:06:23.343Z,73.90
2017-12-25T15:08:02.558Z,71.60
2017-12-25T15:09:40.312Z,71.60
2017-12-25T15:11:18.259Z,70.60
2017-12-25T15:12:56.866Z,70.30
2017-12-25T15:14:36.238Z,70.70
2017-12-25T15:16:20.261Z,70.70
2017-12-25T15:17:57.891Z,72.20
2017-12-25T15:19:35.255Z,73.20
2017-12-25T15:21:16.790Z,74.20
2017-12-25T15:22:56.747Z,73.60
2017-12-25T15:24:36.779Z,73.30
2017-12-25T15:26:16.529Z,74.50
2017-12-25T15:27:55.693Z,73.60
2017-12-25T15:29:34.855Z,74.40
2017-12-25T15:31:13.408Z,75.10
2017-12-25T15:32:54.049Z,75.00
2017-12-25T15:34:32.587Z,75.70
2017-12-25T15:36:13.733Z,75.40
2017-12-25T15:37:51.716Z,75.40
2017-12-25T15:39:30.923Z,76.30
2017-12-25T15:41:12.476Z,75.60
2017-12-25T15:42:52.869Z,75.60
2017-12-25T15:44:33.627Z,74.50
2017-12-25T15:46:12.351Z,73.70
2017-12-25T15:47:52.957Z,73.30
2017-12-25T15:49:29.852Z,73.60
2017-12-25T15:51:08.854Z,73.50
2017-12-25T15:52:49.798Z,74.00
2017-12-25T15:54:27.772Z,73.40
2017-12-25T15:56:06.242Z,72.70
2017-12-25T15:57:44.746Z,74.30
2017-12-25T15:59:25.508Z,75.70
2017-12-25T16:01:04.169Z,76.00
2017-12-25T16:02:41.155Z,76.50
2017-12-25T16:04:20.489Z,75.70
2017-12-25T16:05:58.206Z,76.60
2017-12-25T16:07:37.398Z,76.20
2017-12-25T16:09:20.139Z,75.40
2017-12-25T16:10:58.386Z,75.40
2017-12-25T16:12:38.971Z,75.40
2017-12-25T16:14:28.700Z,74.30
2017-12-25T16:16:09.134Z,73.30
2017-12-25T16:17:48.145Z,73.30
2017-12-25T16:19:30.262Z,72.00
2017-12-25T16:21:10.376Z,72.00
2017-12-25T16:22:51.899Z,72.00
2017-12-25T16:24:35.486Z,72.60
2017-12-25T16:26:17.340Z,74.70
2017-12-25T16:27:55.383Z,74.80
2017-12-25T16:29:34.381Z,76.10
2017-12-25T16:31:17.204Z,75.00
2017-12-25T16:32:57.546Z,75.00
2017-12-25T16:34:39.745Z,77.30
2017-12-25T16:36:20.826Z,78.70
2017-12-25T16:37:59.911Z,79.10
2017-12-25T16:39:41.089Z,76.20
2017-12-25T16:41:21.938Z,75.20
2017-12-25T16:43:02.534Z,76.60
2017-12-25T16:44:39.886Z,76.60
2017-12-25T16:46:18.356Z,77.70
2017-12-25T16:47:57.003Z,76.00
2017-12-25T16:49:42.374Z,74.50
2017-12-25T16:51:26.724Z,74.60
2017-12-25T16:53:07.113Z,76.40
2017-12-25T16:54:47.860Z,74.60
2017-12-25T16:56:28.753Z,73.80
2017-12-25T16:58:10.442Z,73.60
2017-12-25T16:59:50.142Z,72.90
2017-12-25T17:01:33.124Z,73.10
2017-12-25T17:03:12.588Z,74.20
2017-12-25T17:04:52.857Z,74.00
2017-12-25T17:06:33.564Z,75.40
2017-12-25T17:08:14.578Z,73.50
2017-12-25T17:09:54.759Z,72.70
2017-12-25T17:11:33.700Z,72.60
2017-12-25T17:13:14.528Z,72.90
2017-12-25T17:14:56.201Z,74.40
2017-12-25T17:16:37.945Z,74.30
2017-12-25T17:18:18.973Z,73.50
2017-12-25T17:19:58.275Z,73.00
2017-12-25T17:21:38.148Z,72.80
2017-12-25T17:23:19.466Z,73.60
2017-12-25T17:24:57.669Z,75.40
2017-12-25T17:26:38.701Z,74.70
2017-12-25T17:28:20.350Z,74.10
2017-12-25T17:30:03.072Z,75.10
2017-12-25T17:31:45.562Z,75.00
2017-12-25T17:33:26.247Z,74.40
2017-12-25T17:35:10.868Z,74.00
2017-12-25T17:36:50.222Z,74.20
2017-12-25T17:38:28.621Z,73.70
2017-12-25T17:40:12.035Z,74.00
2017-12-25T17:41:49.842Z,74.00
2017-12-25T17:43:26.613Z,74.30
2017-12-25T17:45:06.136Z,74.90
2017-12-25T17:46:44.643Z,76.20
2017-12-25T17:48:24.854Z,75.70
2017-12-25T17:50:04.381Z,74.80
2017-12-25T17:51:45.382Z,73.80
2017-12-25T17:53:27.145Z,73.70
2017-12-25T17:55:09.062Z,74.20
2017-12-25T17:56:50.625Z,74.30
2017-12-25T17:58:31.157Z,73.80
2017-12-25T18:00:11.937Z,74.00
2017-12-25T18:01:55.446Z,74.00
2017-12-25T18:03:39.798Z,73.90
2017-12-25T18:05:23.197Z,73.80
2017-12-25T18:07:05.065Z,73.80
2017-12-25T18:08:46.406Z,73.60
2017-12-25T18:10:27.380Z,73.50
2017-12-25T18:12:08.656Z,72.60
2017-12-25T18:13:49.456Z,72.80
2017-12-25T18:15:31.256Z,73.80
2017-12-25T18:18:41.822Z,73.60
2017-12-25T18:20:22.800Z,74.10
2017-12-25T18:22:05.770Z,75.10
2017-12-25T18:23:45.439Z,74.70
2017-12-25T18:25:25.785Z,74.60
2017-12-25T18:27:06.756Z,75.60
2017-12-25T18:28:49.044Z,75.50
2017-12-25T18:30:33.312Z,75.70
2017-12-25T18:32:16.300Z,75.60
2017-12-25T18:33:56.671Z,75.70
2017-12-25T18:35:39.404Z,75.90
2017-12-25T18:37:20.332Z,76.10
2017-12-25T18:39:01.327Z,76.50
2017-12-25T18:40:41.628Z,76.90
2017-12-25T18:42:24.782Z,77.30
2017-12-25T18:44:04.935Z,77.30
2017-12-25T18:45:45.527Z,77.30
2017-12-25T18:47:27.030Z,77.40
2017-12-25T18:49:08.336Z,77.80
2017-12-25T18:50:51.519Z,77.40
2017-12-25T18:53:02.381Z,76.80
2017-12-25T18:54:45.577Z,78.00
2017-12-25T18:56:27.197Z,77.00
2017-12-25T18:58:08.971Z,76.80
2017-12-25T18:59:51.463Z,76.80
2017-12-25T19:01:33.027Z,76.40
2017-12-25T19:03:19.120Z,76.60
2017-12-25T19:05:00.226Z,77.10
2017-12-25T19:06:42.475Z,75.80
2017-12-25T19:08:24.085Z,75.80
2017-12-25T19:10:05.642Z,75.40
2017-12-25T19:11:45.003Z,75.60
2017-12-25T19:13:25.850Z,75.60
2017-12-25T19:15:07.032Z,75.60
2017-12-25T19:16:49.628Z,75.60
2017-12-25T19:18:30.439Z,75.60
2017-12-25T19:20:07.424Z,75.20
2017-12-25T19:21:46.457Z,74.90
2017-12-25T19:23:25.105Z,75.50
2017-12-25T19:25:05.405Z,76.00
2017-12-25T19:26:46.147Z,75.90
2017-12-25T19:28:26.489Z,76.30
2017-12-25T19:30:10.506Z,76.00
2017-12-25T19:31:51.974Z,76.00
2017-12-25T19:33:32.295Z,75.40
2017-12-25T19:35:13.095Z,75.70
2017-12-25T19:36:52.742Z,75.70
2017-12-25T19:38:32.257Z,76.40
2017-12-25T19:40:14.580Z,75.90
2017-12-25T19:41:55.793Z,75.90
2017-12-25T19:43:37.119Z,76.70
2017-12-25T19:45:19.334Z,77.00
2017-12-25T19:47:04.192Z,76.80
2017-12-25T19:48:48.368Z,76.80
2017-12-25T19:50:30.305Z,77.00
2017-12-25T19:52:12.277Z,76.20
2017-12-25T19:53:55.077Z,76.50
2017-12-25T19:55:37.068Z,76.20
2017-12-25T19:57:20.431Z,76.20
2017-12-25T19:59:01.955Z,76.90
2017-12-25T20:00:45.017Z,78.50
2017-12-25T20:02:26.608Z,78.50
2017-12-25T20:04:09.276Z,78.50
2017-12-25T20:05:56.295Z,78.40
2017-12-25T20:07:38.150Z,79.10
2017-12-25T20:09:24.001Z,79.20
2017-12-25T20:11:04.820Z,79.20
2017-12-25T20:12:50.346Z,79.70
2017-12-25T20:14:30.247Z,79.50
2017-12-25T20:16:15.161Z,79.90
2017-12-25T20:17:57.132Z,79.80
2017-12-25T20:19:38.344Z,79.90
2017-12-25T20:21:19.411Z,80.10
2017-12-25T20:23:01.097Z,80.20
2017-12-25T20:24:53.837Z,80.40
2017-12-25T20:26:36.134Z,80.00
2017-12-25T20:28:19.081Z,79.20
2017-12-25T20:30:00.577Z,78.70
2017-12-25T20:31:45.169Z,77.70
2017-12-25T20:33:27.845Z,78.00
2017-12-25T20:35:09.934Z,78.10
2017-12-25T20:36:50.362Z,77.20
2017-12-25T20:38:33.664Z,78.00
2017-12-25T20:40:23.092Z,78.30
2017-12-25T20:42:02.884Z,78.20
2017-12-25T20:43:44.956Z,78.60
2017-12-25T20:45:27.667Z,78.60
2017-12-25T20:47:10.251Z,78.70
2017-12-25T20:48:58.899Z,78.90
2017-12-25T20:50:58.314Z,78.70
2017-12-25T20:52:41.481Z,78.60
2017-12-25T20:54:25.191Z,78.50
2017-12-25T20:56:06.865Z,78.70
2017-12-25T20:57:52.923Z,78.80
2017-12-25T20:59:35.259Z,79.10
2017-12-25T21:01:18.565Z,78.80
2017-12-25T21:02:58.448Z,78.70
2017-12-25T21:04:40.203Z,78.90
2017-12-25T21:06:21.609Z,78.90
2017-12-25T21:08:03.265Z,78.90
2017-12-25T21:09:45.619Z,79.40
2017-12-25T21:11:27.332Z,79.10
2017-12-25T21:13:09.694Z,79.30
2017-12-25T21:14:48.663Z,79.70